sensor_id;sensor_type;location;lat;lon;timestamp;P1;durP1;ratioP1;P2;durP2;ratioP2
18780;SDS011;9519;51.890;8.970;2023-05-06T00:03:55;14.90;;;12.10;;
18780;SDS011;9519;51.890;8.970;2023-05-06T00:08:59;14.57;;;12.50;;
18780;SDS011;9519;51.890;8.970;2023-05-06T00:14:01;17.63;;;13.57;;
18780;SDS011;9519;51.890;8.970;2023-05-06T00:19:03;18.93;;;14.13;;
18780;SDS011;9519;51.890;8.970;2023-05-06T00:24:06;17.73;;;13.70;;
18780;SDS011;9519;51.890;8.970;2023-05-06T00:29:08;16.23;;;13.87;;
18780;SDS011;9519;51.890;8.970;2023-05-06T00:34:10;18.50;;;13.97;;
18780;SDS011;9519;51.890;8.970;2023-05-06T00:39:14;21.90;;;16.03;;
18780;SDS011;9519;51.890;8.970;2023-05-06T00:44:16;21.97;;;16.87;;
18780;SDS011;9519;51.890;8.970;2023-05-06T00:49:18;20.47;;;15.17;;
18780;SDS011;9519;51.890;8.970;2023-05-06T00:54:22;27.10;;;17.27;;
18780;SDS011;9519;51.890;8.970;2023-05-06T00:59:25;28.30;;;17.63;;
18780;SDS011;9519;51.890;8.970;2023-05-06T01:04:27;27.57;;;18.10;;
18780;SDS011;9519;51.890;8.970;2023-05-06T01:09:37;27.23;;;18.30;;
18780;SDS011;9519;51.890;8.970;2023-05-06T01:14:45;25.83;;;17.17;;
18780;SDS011;9519;51.890;8.970;2023-05-06T01:20:00;29.90;;;18.10;;
18780;SDS011;9519;51.890;8.970;2023-05-06T01:25:16;25.17;;;17.03;;
18780;SDS011;9519;51.890;8.970;2023-05-06T01:30:19;28.50;;;16.40;;
18780;SDS011;9519;51.890;8.970;2023-05-06T01:35:26;30.97;;;18.90;;
18780;SDS011;9519;51.890;8.970;2023-05-06T01:40:40;29.37;;;19.00;;
18780;SDS011;9519;51.890;8.970;2023-05-06T01:45:45;28.97;;;18.03;;
18780;SDS011;9519;51.890;8.970;2023-05-06T01:50:52;27.33;;;17.33;;
18780;SDS011;9519;51.890;8.970;2023-05-06T01:55:55;27.53;;;17.50;;
18780;SDS011;9519;51.890;8.970;2023-05-06T02:00:57;29.80;;;18.00;;
18780;SDS011;9519;51.890;8.970;2023-05-06T02:05:59;24.80;;;15.63;;
18780;SDS011;9519;51.890;8.970;2023-05-06T02:11:05;25.77;;;17.30;;
18780;SDS011;9519;51.890;8.970;2023-05-06T02:16:07;24.43;;;15.93;;
18780;SDS011;9519;51.890;8.970;2023-05-06T02:21:09;26.20;;;16.60;;
18780;SDS011;9519;51.890;8.970;2023-05-06T02:26:12;28.67;;;18.00;;
18780;SDS011;9519;51.890;8.970;2023-05-06T02:31:15;28.87;;;17.27;;
18780;SDS011;9519;51.890;8.970;2023-05-06T02:36:17;28.57;;;17.33;;
18780;SDS011;9519;51.890;8.970;2023-05-06T02:41:21;24.70;;;15.93;;
18780;SDS011;9519;51.890;8.970;2023-05-06T02:46:23;23.50;;;15.70;;
18780;SDS011;9519;51.890;8.970;2023-05-06T02:51:25;25.17;;;15.00;;
18780;SDS011;9519;51.890;8.970;2023-05-06T02:56:28;27.20;;;16.60;;
18780;SDS011;9519;51.890;8.970;2023-05-06T03:01:30;23.40;;;15.47;;
18780;SDS011;9519;51.890;8.970;2023-05-06T03:06:32;26.00;;;16.23;;
18780;SDS011;9519;51.890;8.970;2023-05-06T03:11:35;24.57;;;16.73;;
18780;SDS011;9519;51.890;8.970;2023-05-06T03:16:37;25.77;;;16.30;;
18780;SDS011;9519;51.890;8.970;2023-05-06T03:21:39;23.00;;;14.47;;
18780;SDS011;9519;51.890;8.970;2023-05-06T03:26:44;23.20;;;15.07;;
18780;SDS011;9519;51.890;8.970;2023-05-06T03:31:47;24.30;;;16.37;;
18780;SDS011;9519;51.890;8.970;2023-05-06T03:36:50;25.63;;;15.87;;
18780;SDS011;9519;51.890;8.970;2023-05-06T03:41:53;23.93;;;16.53;;
18780;SDS011;9519;51.890;8.970;2023-05-06T03:46:55;22.67;;;15.20;;
18780;SDS011;9519;51.890;8.970;2023-05-06T03:51:57;24.87;;;15.13;;
18780;SDS011;9519;51.890;8.970;2023-05-06T03:57:01;22.43;;;16.03;;
18780;SDS011;9519;51.890;8.970;2023-05-06T04:02:04;24.67;;;15.33;;
18780;SDS011;9519;51.890;8.970;2023-05-06T04:07:06;21.27;;;14.30;;
18780;SDS011;9519;51.890;8.970;2023-05-06T04:12:09;18.37;;;12.80;;
18780;SDS011;9519;51.890;8.970;2023-05-06T04:17:11;21.37;;;13.80;;
18780;SDS011;9519;51.890;8.970;2023-05-06T04:22:13;18.67;;;13.13;;
18780;SDS011;9519;51.890;8.970;2023-05-06T04:27:17;18.40;;;12.77;;
18780;SDS011;9519;51.890;8.970;2023-05-06T04:32:19;19.47;;;13.60;;
18780;SDS011;9519;51.890;8.970;2023-05-06T04:37:21;18.53;;;12.63;;
18780;SDS011;9519;51.890;8.970;2023-05-06T04:42:24;15.73;;;11.77;;
18780;SDS011;9519;51.890;8.970;2023-05-06T04:47:26;17.53;;;12.03;;
18780;SDS011;9519;51.890;8.970;2023-05-06T04:52:28;20.80;;;14.17;;
18780;SDS011;9519;51.890;8.970;2023-05-06T04:57:32;21.00;;;13.70;;
18780;SDS011;9519;51.890;8.970;2023-05-06T05:02:34;22.47;;;14.63;;
18780;SDS011;9519;51.890;8.970;2023-05-06T05:07:36;26.20;;;16.47;;
18780;SDS011;9519;51.890;8.970;2023-05-06T05:12:39;27.80;;;17.33;;
18780;SDS011;9519;51.890;8.970;2023-05-06T05:17:41;25.07;;;18.13;;
18780;SDS011;9519;51.890;8.970;2023-05-06T05:22:45;26.37;;;17.47;;
18780;SDS011;9519;51.890;8.970;2023-05-06T05:27:48;24.10;;;16.60;;
18780;SDS011;9519;51.890;8.970;2023-05-06T05:32:50;22.37;;;15.80;;
18780;SDS011;9519;51.890;8.970;2023-05-06T05:37:52;24.40;;;16.93;;
18780;SDS011;9519;51.890;8.970;2023-05-06T05:42:58;25.67;;;17.80;;
18780;SDS011;9519;51.890;8.970;2023-05-06T05:48:00;25.37;;;16.50;;
18780;SDS011;9519;51.890;8.970;2023-05-06T05:53:03;24.97;;;16.47;;
18780;SDS011;9519;51.890;8.970;2023-05-06T05:58:08;21.90;;;15.30;;
18780;SDS011;9519;51.890;8.970;2023-05-06T06:03:10;21.00;;;14.83;;
18780;SDS011;9519;51.890;8.970;2023-05-06T06:08:13;22.27;;;14.40;;
18780;SDS011;9519;51.890;8.970;2023-05-06T06:13:18;23.97;;;15.40;;
18780;SDS011;9519;51.890;8.970;2023-05-06T06:18:20;21.60;;;14.23;;
18780;SDS011;9519;51.890;8.970;2023-05-06T06:23:23;22.87;;;14.33;;
18780;SDS011;9519;51.890;8.970;2023-05-06T06:28:26;17.37;;;12.40;;
18780;SDS011;9519;51.890;8.970;2023-05-06T06:33:28;15.87;;;12.23;;
18780;SDS011;9519;51.890;8.970;2023-05-06T06:38:30;18.37;;;12.27;;
18780;SDS011;9519;51.890;8.970;2023-05-06T06:43:34;16.17;;;11.20;;
18780;SDS011;9519;51.890;8.970;2023-05-06T06:48:36;17.40;;;10.97;;
18780;SDS011;9519;51.890;8.970;2023-05-06T06:53:38;14.00;;;9.70;;
18780;SDS011;9519;51.890;8.970;2023-05-06T06:58:41;13.70;;;9.00;;
18780;SDS011;9519;51.890;8.970;2023-05-06T07:03:43;13.53;;;9.33;;
18780;SDS011;9519;51.890;8.970;2023-05-06T07:08:45;13.27;;;10.27;;
18780;SDS011;9519;51.890;8.970;2023-05-06T07:13:49;12.73;;;8.83;;
18780;SDS011;9519;51.890;8.970;2023-05-06T07:18:51;10.57;;;7.70;;
18780;SDS011;9519;51.890;8.970;2023-05-06T07:23:53;11.87;;;7.40;;
18780;SDS011;9519;51.890;8.970;2023-05-06T07:28:56;9.53;;;6.20;;
18780;SDS011;9519;51.890;8.970;2023-05-06T07:33:58;9.43;;;6.40;;
18780;SDS011;9519;51.890;8.970;2023-05-06T07:39:00;8.90;;;6.37;;
18780;SDS011;9519;51.890;8.970;2023-05-06T07:44:04;11.03;;;6.37;;
18780;SDS011;9519;51.890;8.970;2023-05-06T07:49:06;11.10;;;6.03;;
18780;SDS011;9519;51.890;8.970;2023-05-06T07:54:08;11.27;;;6.20;;
18780;SDS011;9519;51.890;8.970;2023-05-06T07:59:12;8.37;;;6.00;;
18780;SDS011;9519;51.890;8.970;2023-05-06T08:04:14;9.03;;;5.73;;
18780;SDS011;9519;51.890;8.970;2023-05-06T08:09:16;9.20;;;6.77;;
18780;SDS011;9519;51.890;8.970;2023-05-06T08:14:19;9.60;;;6.67;;
18780;SDS011;9519;51.890;8.970;2023-05-06T08:19:21;12.27;;;7.40;;
18780;SDS011;9519;51.890;8.970;2023-05-06T08:24:23;9.03;;;5.70;;
18780;SDS011;9519;51.890;8.970;2023-05-06T08:29:27;11.77;;;7.47;;
18780;SDS011;9519;51.890;8.970;2023-05-06T08:34:29;22.37;;;9.87;;
18780;SDS011;9519;51.890;8.970;2023-05-06T08:39:31;9.33;;;5.40;;
18780;SDS011;9519;51.890;8.970;2023-05-06T08:44:34;13.50;;;7.70;;
18780;SDS011;9519;51.890;8.970;2023-05-06T08:49:37;8.07;;;5.90;;
18780;SDS011;9519;51.890;8.970;2023-05-06T08:54:39;9.00;;;5.97;;
18780;SDS011;9519;51.890;8.970;2023-05-06T08:59:44;16.47;;;9.63;;
18780;SDS011;9519;51.890;8.970;2023-05-06T09:04:46;9.57;;;6.30;;
18780;SDS011;9519;51.890;8.970;2023-05-06T09:09:49;8.23;;;4.67;;
18780;SDS011;9519;51.890;8.970;2023-05-06T09:14:53;8.27;;;5.00;;
18780;SDS011;9519;51.890;8.970;2023-05-06T09:19:56;7.00;;;4.13;;
18780;SDS011;9519;51.890;8.970;2023-05-06T09:24:59;7.47;;;4.13;;
18780;SDS011;9519;51.890;8.970;2023-05-06T09:30:03;7.17;;;3.90;;
18780;SDS011;9519;51.890;8.970;2023-05-06T09:35:07;11.38;;;6.22;;
18780;SDS011;9519;51.890;8.970;2023-05-06T09:40:10;10.03;;;5.03;;
18780;SDS011;9519;51.890;8.970;2023-05-06T09:45:15;15.55;;;7.70;;
18780;SDS011;9519;51.890;8.970;2023-05-06T09:50:19;5.30;;;2.78;;
18780;SDS011;9519;51.890;8.970;2023-05-06T09:55:22;16.87;;;5.77;;
18780;SDS011;9519;51.890;8.970;2023-05-06T10:00:27;6.17;;;3.23;;
18780;SDS011;9519;51.890;8.970;2023-05-06T10:05:31;3.85;;;2.03;;
18780;SDS011;9519;51.890;8.970;2023-05-06T10:10:35;13.25;;;5.07;;
18780;SDS011;9519;51.890;8.970;2023-05-06T10:15:43;7.35;;;3.28;;
18780;SDS011;9519;51.890;8.970;2023-05-06T10:20:48;6.15;;;2.92;;
18780;SDS011;9519;51.890;8.970;2023-05-06T10:25:53;4.30;;;2.60;;
18780;SDS011;9519;51.890;8.970;2023-05-06T10:30:59;5.32;;;2.25;;
18780;SDS011;9519;51.890;8.970;2023-05-06T10:36:09;4.18;;;2.15;;
18780;SDS011;9519;51.890;8.970;2023-05-06T10:41:19;3.80;;;1.40;;
18780;SDS011;9519;51.890;8.970;2023-05-06T10:46:24;3.75;;;1.40;;
18780;SDS011;9519;51.890;8.970;2023-05-06T10:51:28;2.70;;;1.27;;
18780;SDS011;9519;51.890;8.970;2023-05-06T10:56:31;4.75;;;1.58;;
18780;SDS011;9519;51.890;8.970;2023-05-06T11:01:37;3.92;;;1.63;;
18780;SDS011;9519;51.890;8.970;2023-05-06T11:06:43;3.78;;;1.73;;
18780;SDS011;9519;51.890;8.970;2023-05-06T11:11:47;3.58;;;1.65;;
18780;SDS011;9519;51.890;8.970;2023-05-06T11:16:55;6.13;;;2.20;;
18780;SDS011;9519;51.890;8.970;2023-05-06T11:21:59;4.80;;;1.52;;
18780;SDS011;9519;51.890;8.970;2023-05-06T11:27:03;4.72;;;1.75;;
18780;SDS011;9519;51.890;8.970;2023-05-06T11:32:17;5.35;;;1.67;;
18780;SDS011;9519;51.890;8.970;2023-05-06T11:37:25;5.28;;;1.73;;
18780;SDS011;9519;51.890;8.970;2023-05-06T11:42:28;4.00;;;1.60;;
18780;SDS011;9519;51.890;8.970;2023-05-06T11:47:32;5.03;;;1.50;;
18780;SDS011;9519;51.890;8.970;2023-05-06T11:52:34;6.53;;;1.58;;
18780;SDS011;9519;51.890;8.970;2023-05-06T11:57:40;6.22;;;1.98;;
18780;SDS011;9519;51.890;8.970;2023-05-06T12:02:48;10.50;;;3.30;;
18780;SDS011;9519;51.890;8.970;2023-05-06T12:07:55;4.75;;;1.42;;
18780;SDS011;9519;51.890;8.970;2023-05-06T12:12:57;4.75;;;1.55;;
18780;SDS011;9519;51.890;8.970;2023-05-06T12:18:01;3.55;;;1.67;;
18780;SDS011;9519;51.890;8.970;2023-05-06T12:23:05;7.28;;;2.50;;
18780;SDS011;9519;51.890;8.970;2023-05-06T12:28:13;3.67;;;1.75;;
18780;SDS011;9519;51.890;8.970;2023-05-06T12:33:18;2.88;;;1.30;;
18780;SDS011;9519;51.890;8.970;2023-05-06T12:38:20;4.35;;;1.92;;
18780;SDS011;9519;51.890;8.970;2023-05-06T12:43:27;3.00;;;1.42;;
18780;SDS011;9519;51.890;8.970;2023-05-06T12:48:31;5.00;;;1.80;;
18780;SDS011;9519;51.890;8.970;2023-05-06T12:53:34;3.47;;;1.48;;
18780;SDS011;9519;51.890;8.970;2023-05-06T12:58:36;2.78;;;1.17;;
18780;SDS011;9519;51.890;8.970;2023-05-06T13:03:40;7.28;;;2.38;;
18780;SDS011;9519;51.890;8.970;2023-05-06T13:08:42;5.40;;;1.48;;
18780;SDS011;9519;51.890;8.970;2023-05-06T13:13:44;4.78;;;1.95;;
18780;SDS011;9519;51.890;8.970;2023-05-06T13:18:47;7.70;;;2.50;;
18780;SDS011;9519;51.890;8.970;2023-05-06T13:23:49;5.55;;;2.00;;
18780;SDS011;9519;51.890;8.970;2023-05-06T13:28:51;7.10;;;2.58;;
18780;SDS011;9519;51.890;8.970;2023-05-06T13:33:55;4.05;;;1.50;;
18780;SDS011;9519;51.890;8.970;2023-05-06T13:38:57;7.30;;;2.42;;
18780;SDS011;9519;51.890;8.970;2023-05-06T13:43:59;4.95;;;2.40;;
18780;SDS011;9519;51.890;8.970;2023-05-06T13:49:03;8.75;;;3.15;;
18780;SDS011;9519;51.890;8.970;2023-05-06T13:54:05;5.35;;;1.90;;
18780;SDS011;9519;51.890;8.970;2023-05-06T13:59:07;4.82;;;1.67;;
18780;SDS011;9519;51.890;8.970;2023-05-06T14:04:12;5.07;;;1.60;;
18780;SDS011;9519;51.890;8.970;2023-05-06T14:09:14;3.70;;;1.60;;
18780;SDS011;9519;51.890;8.970;2023-05-06T14:14:17;4.20;;;1.70;;
18780;SDS011;9519;51.890;8.970;2023-05-06T14:19:20;3.47;;;1.45;;
18780;SDS011;9519;51.890;8.970;2023-05-06T14:24:22;4.07;;;1.40;;
18780;SDS011;9519;51.890;8.970;2023-05-06T14:29:24;4.25;;;1.38;;
18780;SDS011;9519;51.890;8.970;2023-05-06T14:34:29;4.32;;;1.75;;
18780;SDS011;9519;51.890;8.970;2023-05-06T14:39:35;2.60;;;1.33;;
18780;SDS011;9519;51.890;8.970;2023-05-06T14:44:37;3.45;;;1.33;;
18780;SDS011;9519;51.890;8.970;2023-05-06T14:49:40;4.45;;;1.27;;
18780;SDS011;9519;51.890;8.970;2023-05-06T14:54:42;4.80;;;1.60;;
18780;SDS011;9519;51.890;8.970;2023-05-06T14:59:45;3.47;;;1.30;;
18780;SDS011;9519;51.890;8.970;2023-05-06T15:04:49;7.53;;;2.72;;
18780;SDS011;9519;51.890;8.970;2023-05-06T15:09:51;6.35;;;1.45;;
18780;SDS011;9519;51.890;8.970;2023-05-06T15:14:53;6.40;;;1.48;;
18780;SDS011;9519;51.890;8.970;2023-05-06T15:19:57;2.63;;;1.00;;
18780;SDS011;9519;51.890;8.970;2023-05-06T15:24:59;6.43;;;1.73;;
18780;SDS011;9519;51.890;8.970;2023-05-06T15:30:02;6.43;;;2.03;;
18780;SDS011;9519;51.890;8.970;2023-05-06T15:35:07;2.83;;;1.40;;
18780;SDS011;9519;51.890;8.970;2023-05-06T15:40:10;4.15;;;1.35;;
18780;SDS011;9519;51.890;8.970;2023-05-06T15:45:13;15.88;;;4.95;;
18780;SDS011;9519;51.890;8.970;2023-05-06T15:50:16;8.02;;;2.80;;
18780;SDS011;9519;51.890;8.970;2023-05-06T15:55:19;5.50;;;1.50;;
18780;SDS011;9519;51.890;8.970;2023-05-06T16:00:22;5.93;;;1.60;;
18780;SDS011;9519;51.890;8.970;2023-05-06T16:05:25;7.65;;;1.58;;
18780;SDS011;9519;51.890;8.970;2023-05-06T16:10:29;3.33;;;1.40;;
18780;SDS011;9519;51.890;8.970;2023-05-06T16:15:31;3.70;;;1.75;;
18780;SDS011;9519;51.890;8.970;2023-05-06T16:20:35;6.97;;;1.75;;
18780;SDS011;9519;51.890;8.970;2023-05-06T16:25:38;4.05;;;1.55;;
18780;SDS011;9519;51.890;8.970;2023-05-06T16:30:40;5.90;;;1.83;;
18780;SDS011;9519;51.890;8.970;2023-05-06T16:35:45;4.82;;;2.10;;
18780;SDS011;9519;51.890;8.970;2023-05-06T16:40:47;4.45;;;2.00;;
18780;SDS011;9519;51.890;8.970;2023-05-06T16:45:50;3.40;;;1.92;;
18780;SDS011;9519;51.890;8.970;2023-05-06T16:50:53;5.68;;;2.15;;
18780;SDS011;9519;51.890;8.970;2023-05-06T16:55:59;5.43;;;2.50;;
18780;SDS011;9519;51.890;8.970;2023-05-06T17:01:03;6.30;;;2.30;;
18780;SDS011;9519;51.890;8.970;2023-05-06T17:06:08;5.15;;;2.70;;
18780;SDS011;9519;51.890;8.970;2023-05-06T17:11:10;7.05;;;2.88;;
18780;SDS011;9519;51.890;8.970;2023-05-06T17:16:12;7.07;;;3.10;;
18780;SDS011;9519;51.890;8.970;2023-05-06T17:21:17;5.78;;;3.30;;
18780;SDS011;9519;51.890;8.970;2023-05-06T17:26:20;6.07;;;3.22;;
18780;SDS011;9519;51.890;8.970;2023-05-06T17:31:22;6.40;;;3.40;;
18780;SDS011;9519;51.890;8.970;2023-05-06T17:36:26;7.03;;;3.40;;
18780;SDS011;9519;51.890;8.970;2023-05-06T17:41:28;6.25;;;3.53;;
18780;SDS011;9519;51.890;8.970;2023-05-06T17:46:30;6.45;;;3.50;;
18780;SDS011;9519;51.890;8.970;2023-05-06T17:51:33;6.88;;;3.63;;
18780;SDS011;9519;51.890;8.970;2023-05-06T17:56:35;9.48;;;5.10;;
18780;SDS011;9519;51.890;8.970;2023-05-06T18:01:38;9.63;;;5.60;;
18780;SDS011;9519;51.890;8.970;2023-05-06T18:06:41;8.25;;;5.10;;
18780;SDS011;9519;51.890;8.970;2023-05-06T18:11:44;8.80;;;5.32;;
18780;SDS011;9519;51.890;8.970;2023-05-06T18:16:46;8.57;;;5.82;;
18780;SDS011;9519;51.890;8.970;2023-05-06T18:21:50;9.30;;;6.00;;
18780;SDS011;9519;51.890;8.970;2023-05-06T18:26:52;8.60;;;5.93;;
18780;SDS011;9519;51.890;8.970;2023-05-06T18:31:54;8.63;;;6.15;;
18780;SDS011;9519;51.890;8.970;2023-05-06T18:36:58;8.95;;;5.95;;
18780;SDS011;9519;51.890;8.970;2023-05-06T18:42:00;8.43;;;5.43;;
18780;SDS011;9519;51.890;8.970;2023-05-06T18:47:03;10.27;;;6.20;;
18780;SDS011;9519;51.890;8.970;2023-05-06T18:52:07;11.85;;;6.07;;
18780;SDS011;9519;51.890;8.970;2023-05-06T18:57:09;9.07;;;6.45;;
18780;SDS011;9519;51.890;8.970;2023-05-06T19:02:12;10.30;;;6.75;;
18780;SDS011;9519;51.890;8.970;2023-05-06T19:07:16;9.20;;;6.15;;
18780;SDS011;9519;51.890;8.970;2023-05-06T19:12:18;9.90;;;5.95;;
18780;SDS011;9519;51.890;8.970;2023-05-06T19:17:21;10.50;;;6.10;;
18780;SDS011;9519;51.890;8.970;2023-05-06T19:22:25;10.68;;;7.07;;
18780;SDS011;9519;51.890;8.970;2023-05-06T19:27:28;10.95;;;7.05;;
18780;SDS011;9519;51.890;8.970;2023-05-06T19:32:30;9.98;;;5.85;;
18780;SDS011;9519;51.890;8.970;2023-05-06T19:37:34;10.32;;;6.22;;
18780;SDS011;9519;51.890;8.970;2023-05-06T19:42:37;10.30;;;5.70;;
18780;SDS011;9519;51.890;8.970;2023-05-06T19:47:39;13.15;;;6.20;;
18780;SDS011;9519;51.890;8.970;2023-05-06T19:52:43;8.30;;;5.53;;
18780;SDS011;9519;51.890;8.970;2023-05-06T19:57:45;9.82;;;6.13;;
18780;SDS011;9519;51.890;8.970;2023-05-06T20:02:47;12.82;;;6.18;;
18780;SDS011;9519;51.890;8.970;2023-05-06T20:07:50;8.93;;;5.60;;
18780;SDS011;9519;51.890;8.970;2023-05-06T20:12:54;9.10;;;5.60;;
18780;SDS011;9519;51.890;8.970;2023-05-06T20:17:56;9.33;;;5.93;;
18780;SDS011;9519;51.890;8.970;2023-05-06T20:22:59;8.13;;;5.60;;
18780;SDS011;9519;51.890;8.970;2023-05-06T20:28:03;8.07;;;5.30;;
18780;SDS011;9519;51.890;8.970;2023-05-06T20:33:06;9.60;;;5.77;;
18780;SDS011;9519;51.890;8.970;2023-05-06T20:38:10;11.70;;;6.55;;
18780;SDS011;9519;51.890;8.970;2023-05-06T20:43:15;11.80;;;6.17;;
18780;SDS011;9519;51.890;8.970;2023-05-06T20:48:18;8.73;;;6.60;;
18780;SDS011;9519;51.890;8.970;2023-05-06T20:53:21;11.87;;;6.40;;
18780;SDS011;9519;51.890;8.970;2023-05-06T20:58:26;11.60;;;6.97;;
18780;SDS011;9519;51.890;8.970;2023-05-06T21:03:28;12.60;;;7.88;;
18780;SDS011;9519;51.890;8.970;2023-05-06T21:08:32;8.27;;;6.25;;
18780;SDS011;9519;51.890;8.970;2023-05-06T21:13:34;9.57;;;7.20;;
18780;SDS011;9519;51.890;8.970;2023-05-06T21:18:36;9.63;;;7.13;;
18780;SDS011;9519;51.890;8.970;2023-05-06T21:23:39;12.93;;;8.23;;
18780;SDS011;9519;51.890;8.970;2023-05-06T21:28:41;14.52;;;9.88;;
18780;SDS011;9519;51.890;8.970;2023-05-06T21:33:57;13.48;;;9.38;;
18780;SDS011;9519;51.890;8.970;2023-05-06T21:39:04;17.17;;;11.27;;
18780;SDS011;9519;51.890;8.970;2023-05-06T21:44:08;15.07;;;10.97;;
18780;SDS011;9519;51.890;8.970;2023-05-06T21:49:11;15.97;;;11.83;;
18780;SDS011;9519;51.890;8.970;2023-05-06T21:54:14;16.93;;;11.77;;
18780;SDS011;9519;51.890;8.970;2023-05-06T21:59:16;17.80;;;13.07;;
18780;SDS011;9519;51.890;8.970;2023-05-06T22:04:19;22.33;;;14.13;;
18780;SDS011;9519;51.890;8.970;2023-05-06T22:09:23;19.70;;;15.50;;
18780;SDS011;9519;51.890;8.970;2023-05-06T22:14:25;20.13;;;15.43;;
18780;SDS011;9519;51.890;8.970;2023-05-06T22:19:27;18.07;;;14.87;;
18780;SDS011;9519;51.890;8.970;2023-05-06T22:24:30;19.23;;;15.53;;
18780;SDS011;9519;51.890;8.970;2023-05-06T22:29:32;20.37;;;16.00;;
18780;SDS011;9519;51.890;8.970;2023-05-06T22:34:35;19.23;;;16.53;;
18780;SDS011;9519;51.890;8.970;2023-05-06T22:39:38;19.57;;;16.73;;
18780;SDS011;9519;51.890;8.970;2023-05-06T22:44:41;19.90;;;16.93;;
18780;SDS011;9519;51.890;8.970;2023-05-06T22:49:43;22.27;;;16.70;;
18780;SDS011;9519;51.890;8.970;2023-05-06T22:54:47;21.27;;;18.53;;
18780;SDS011;9519;51.890;8.970;2023-05-06T22:59:49;22.87;;;17.07;;
18780;SDS011;9519;51.890;8.970;2023-05-06T23:04:51;20.90;;;17.30;;
18780;SDS011;9519;51.890;8.970;2023-05-06T23:09:55;24.63;;;16.60;;
18780;SDS011;9519;51.890;8.970;2023-05-06T23:14:58;24.90;;;18.43;;
18780;SDS011;9519;51.890;8.970;2023-05-06T23:20:01;25.23;;;18.37;;
18780;SDS011;9519;51.890;8.970;2023-05-06T23:25:05;21.60;;;18.23;;
18780;SDS011;9519;51.890;8.970;2023-05-06T23:30:09;22.87;;;17.97;;
18780;SDS011;9519;51.890;8.970;2023-05-06T23:35:12;21.57;;;17.87;;
18780;SDS011;9519;51.890;8.970;2023-05-06T23:40:16;25.53;;;20.37;;
18780;SDS011;9519;51.890;8.970;2023-05-06T23:45:18;28.07;;;19.80;;
18780;SDS011;9519;51.890;8.970;2023-05-06T23:50:20;23.37;;;18.60;;
18780;SDS011;9519;51.890;8.970;2023-05-06T23:55:23;24.00;;;18.73;;
